createdAt,value
2023-02-18T00:00:25.178Z,100368.47
2023-02-18T00:02:52.812Z,100372.91
2023-02-18T00:05:19.567Z,100368.47
2023-02-18T00:07:46.285Z,100369.16
2023-02-18T00:10:15.525Z,100360.72
2023-02-18T00:12:42.844Z,100355.25
2023-02-18T00:15:10.070Z,100340.88
2023-02-18T00:17:37.033Z,100348.16
2023-02-18T00:20:06.264Z,100343.47
2023-02-18T00:22:33.022Z,100350.84
2023-02-18T00:24:59.604Z,100347.03
2023-02-18T00:27:26.271Z,100345.53
2023-02-18T00:29:52.900Z,100343.31
2023-02-18T00:32:19.485Z,100352.28
2023-02-18T00:34:46.186Z,100342.31
2023-02-18T00:37:12.814Z,100345.94
2023-02-18T00:39:39.760Z,100333.94
2023-02-18T00:42:06.489Z,100337.69
2023-02-18T00:44:33.086Z,100337.97
2023-02-18T00:46:59.747Z,100322.97
2023-02-18T00:49:26.410Z,100336.47
2023-02-18T00:51:53.179Z,100327.59
2023-02-18T00:54:19.788Z,100328.91
2023-02-18T00:56:46.477Z,100338.13
2023-02-18T00:59:13.071Z,100338.25
2023-02-18T01:01:39.917Z,100335.81
2023-02-18T01:04:06.561Z,100335.00
2023-02-18T01:06:33.673Z,100328.09
2023-02-18T01:09:00.304Z,100328.09
2023-02-18T01:11:27.010Z,100336.38
2023-02-18T01:13:53.795Z,100333.47
2023-02-18T01:16:20.675Z,100328.78
2023-02-18T01:18:47.454Z,100337.22
2023-02-18T01:21:14.158Z,100327.59
2023-02-18T01:23:42.342Z,100330.50
2023-02-18T01:26:10.879Z,100330.56
2023-02-18T01:28:38.099Z,100326.50
2023-02-18T01:31:10.291Z,100326.25
2023-02-18T01:33:37.596Z,100328.66
2023-02-18T01:36:04.791Z,100311.53
2023-02-18T01:38:31.551Z,100320.88
2023-02-18T01:40:58.300Z,100315.19
2023-02-18T01:43:25.189Z,100313.97
2023-02-18T01:46:20.391Z,100319.72
2023-02-18T01:48:59.051Z,100323.78
2023-02-18T01:51:35.416Z,100314.28
2023-02-18T01:54:27.819Z,100319.31
2023-02-18T01:57:07.996Z,100318.03
2023-02-18T01:59:44.550Z,100317.47
2023-02-18T02:02:15.750Z,100312.56
2023-02-18T02:04:43.294Z,100301.56
2023-02-18T02:07:10.671Z,100314.28
2023-02-18T02:09:40.908Z,100304.88
2023-02-18T02:12:16.632Z,100294.69
2023-02-18T02:15:02.054Z,100291.34
2023-02-18T02:17:31.602Z,100301.84
2023-02-18T02:20:16.731Z,100283.34
2023-02-18T02:23:21.102Z,100294.22
2023-02-18T02:25:53.652Z,100277.44
2023-02-18T02:29:05.386Z,100288.41
2023-02-18T02:31:38.394Z,100286.41
2023-02-18T02:34:42.436Z,100271.47
2023-02-18T02:37:23.446Z,100268.84
2023-02-18T02:40:14.179Z,100278.22
2023-02-18T02:42:59.611Z,100278.66
2023-02-18T02:45:38.362Z,100276.84
2023-02-18T02:48:15.832Z,100271.56
2023-02-18T02:51:09.903Z,100256.88
2023-02-18T02:53:37.621Z,100283.72
2023-02-18T02:56:04.686Z,100275.38
2023-02-18T02:58:31.344Z,100279.75
2023-02-18T03:01:20.004Z,100290.31
2023-02-18T03:04:23.758Z,100288.59
2023-02-18T03:06:59.157Z,100294.88
2023-02-18T03:09:34.979Z,100282.44
2023-02-18T03:12:18.884Z,100281.69
2023-02-18T03:15:15.091Z,100280.59
2023-02-18T03:17:44.748Z,100282.88
2023-02-18T03:20:28.732Z,100289.66
2023-02-18T03:22:57.294Z,100304.75
2023-02-18T03:25:24.551Z,100307.19
2023-02-18T03:27:58.211Z,100294.63
2023-02-18T03:30:48.478Z,100300.06
2023-02-18T03:33:20.445Z,100292.78
2023-02-18T03:35:49.207Z,100298.94
2023-02-18T03:38:22.140Z,100309.38
2023-02-18T03:40:49.801Z,100317.31
2023-02-18T03:43:16.444Z,100308.09
2023-02-18T03:45:43.098Z,100325.00
2023-02-18T03:48:09.824Z,100326.72
2023-02-18T03:50:36.393Z,100327.81
2023-02-18T03:53:04.367Z,100335.16
2023-02-18T03:55:30.968Z,100328.28
2023-02-18T03:57:57.639Z,100340.88
2023-02-18T04:00:24.355Z,100344.16
2023-02-18T04:02:51.020Z,100340.72
2023-02-18T04:05:17.648Z,100346.19
2023-02-18T04:07:44.301Z,100341.00
2023-02-18T04:10:11.410Z,100339.81
2023-02-18T04:12:38.236Z,100346.72
2023-02-18T04:15:05.190Z,100329.03
2023-02-18T04:17:33.184Z,100331.94
2023-02-18T04:20:00.182Z,100343.31
2023-02-18T04:22:26.936Z,100325.75
2023-02-18T04:24:53.547Z,100324.25
2023-02-18T04:27:20.359Z,100327.97
2023-02-18T04:29:47.207Z,100325.44
2023-02-18T04:32:14.009Z,100336.44
2023-02-18T04:34:40.619Z,100322.50
2023-02-18T04:37:07.310Z,100333.00
2023-02-18T04:39:34.204Z,100333.34
2023-02-18T04:42:00.880Z,100345.03
2023-02-18T04:44:27.471Z,100339.50
2023-02-18T04:46:54.336Z,100346.75
2023-02-18T04:49:20.968Z,100336.25
2023-02-18T04:51:47.530Z,100350.25
2023-02-18T04:54:14.270Z,100344.69
2023-02-18T04:56:40.900Z,100349.16
2023-02-18T04:59:07.591Z,100348.00
2023-02-18T05:01:34.398Z,100358.50
2023-02-18T05:04:01.068Z,100353.16
2023-02-18T05:06:27.702Z,100362.28
2023-02-18T05:08:54.546Z,100363.69
2023-02-18T05:11:21.253Z,100365.75
2023-02-18T05:13:47.834Z,100369.31
2023-02-18T05:16:14.585Z,100371.03
2023-02-18T05:18:41.710Z,100362.13
2023-02-18T05:21:08.696Z,100374.75
2023-02-18T05:23:35.263Z,100366.06
2023-02-18T05:26:02.151Z,100366.56
2023-02-18T05:28:28.835Z,100370.75
2023-02-18T05:30:55.516Z,100368.03
2023-02-18T05:33:22.454Z,100358.22
2023-02-18T05:35:49.771Z,100372.81
2023-02-18T05:38:16.338Z,100381.16
2023-02-18T05:40:43.017Z,100385.00
2023-02-18T05:43:09.660Z,100389.00
2023-02-18T05:45:36.519Z,100395.44
2023-02-18T05:48:03.386Z,100409.78
2023-02-18T05:50:30.046Z,100418.44
2023-02-18T05:52:56.693Z,100412.25
2023-02-18T05:55:23.315Z,100428.22
2023-02-18T05:57:50.341Z,100439.63
2023-02-18T06:00:17.703Z,100441.69
2023-02-18T06:02:44.583Z,100444.72
2023-02-18T06:05:11.367Z,100445.94
2023-02-18T06:07:38.345Z,100459.31
2023-02-18T06:10:06.544Z,100450.66
2023-02-18T06:12:33.145Z,100445.50
2023-02-18T06:14:59.881Z,100446.16
2023-02-18T06:17:26.513Z,100453.59
2023-02-18T06:19:53.146Z,100450.84
2023-02-18T06:22:19.856Z,100461.69
2023-02-18T06:24:46.822Z,100472.56
2023-02-18T06:27:13.501Z,100469.63
2023-02-18T06:29:40.106Z,100469.34
2023-02-18T06:32:06.839Z,100476.53
2023-02-18T06:34:33.528Z,100459.81
2023-02-18T06:37:01.382Z,100467.91
2023-02-18T06:39:28.183Z,100478.97
2023-02-18T06:41:54.813Z,100476.03
2023-02-18T06:44:21.654Z,100473.66
2023-02-18T06:46:48.333Z,100476.94
2023-02-18T06:49:14.968Z,100467.84
2023-02-18T06:51:41.545Z,100466.47
2023-02-18T06:54:08.275Z,100462.69
2023-02-18T06:56:34.874Z,100468.44
2023-02-18T06:59:01.765Z,100471.81
2023-02-18T07:01:28.630Z,100471.19
2023-02-18T07:03:55.462Z,100472.97
2023-02-18T07:06:22.412Z,100482.59
2023-02-18T07:08:48.999Z,100476.69
2023-02-18T07:11:15.707Z,100487.16
2023-02-18T07:13:42.403Z,100481.75
2023-02-18T07:16:09.216Z,100482.78
2023-02-18T07:18:36.032Z,100482.13
2023-02-18T07:21:02.856Z,100469.84
2023-02-18T07:23:29.682Z,100484.41
2023-02-18T07:26:08.325Z,100488.50
2023-02-18T07:28:35.435Z,100490.47
2023-02-18T07:31:02.312Z,100487.75
2023-02-18T07:33:29.120Z,100477.56
2023-02-18T07:35:57.282Z,100488.91
2023-02-18T07:38:25.307Z,100471.41
2023-02-18T07:40:52.383Z,100479.53
2023-02-18T07:43:19.140Z,100475.28
2023-02-18T07:45:45.791Z,100473.25
2023-02-18T07:48:13.006Z,100467.59
2023-02-18T07:50:41.285Z,100474.91
2023-02-18T07:53:08.030Z,100473.22
2023-02-18T07:55:35.035Z,100482.75
2023-02-18T07:58:01.775Z,100466.94
2023-02-18T08:00:28.393Z,100471.94
2023-02-18T08:02:55.060Z,100472.53
2023-02-18T08:05:22.156Z,100475.69
2023-02-18T08:07:48.770Z,100468.41
2023-02-18T08:10:15.418Z,100471.97
2023-02-18T08:12:41.994Z,100476.38
2023-02-18T08:15:09.111Z,100476.06
2023-02-18T08:17:35.748Z,100469.91
2023-02-18T08:20:02.559Z,100475.97
2023-02-18T08:22:29.167Z,100484.13
2023-02-18T08:24:55.879Z,100491.84
2023-02-18T08:27:25.906Z,100483.16
2023-02-18T08:29:52.603Z,100490.34
2023-02-18T08:32:19.252Z,100484.84
2023-02-18T08:34:45.869Z,100484.53
2023-02-18T08:37:12.507Z,100483.56
2023-02-18T08:39:39.987Z,100480.16
2023-02-18T08:42:06.832Z,100486.59
2023-02-18T08:44:33.572Z,100494.00
2023-02-18T08:47:00.194Z,100489.47
2023-02-18T08:49:27.066Z,100492.56
2023-02-18T08:51:54.559Z,100496.63
2023-02-18T08:54:21.454Z,100486.06
2023-02-18T08:56:48.265Z,100484.06
2023-02-18T08:59:14.946Z,100491.00
2023-02-18T09:01:41.652Z,100476.50
2023-02-18T09:04:08.369Z,100482.97
2023-02-18T09:06:38.066Z,100493.56
2023-02-18T09:09:04.937Z,100489.25
2023-02-18T09:11:32.031Z,100477.31
2023-02-18T09:13:59.025Z,100472.84
2023-02-18T09:16:26.388Z,100485.25
2023-02-18T09:18:53.104Z,100485.88
2023-02-18T09:21:20.336Z,100485.56
2023-02-18T09:23:46.928Z,100480.84
2023-02-18T09:26:15.870Z,100473.03
2023-02-18T09:28:43.253Z,100478.50
2023-02-18T09:31:17.341Z,100476.72
2023-02-18T09:33:56.856Z,100465.59
2023-02-18T09:36:23.745Z,100467.56
2023-02-18T09:38:52.167Z,100463.00
2023-02-18T09:41:18.757Z,100460.69
2023-02-18T09:43:49.629Z,100456.03
2023-02-18T09:46:22.767Z,100473.53
2023-02-18T09:48:49.519Z,100455.84
2023-02-18T09:51:16.921Z,100468.81
2023-02-18T09:53:45.278Z,100460.47
2023-02-18T09:56:21.258Z,100464.28
2023-02-18T09:58:49.997Z,100461.00
2023-02-18T10:01:29.643Z,100459.19
2023-02-18T10:04:04.316Z,100456.25
2023-02-18T10:06:33.335Z,100463.78
2023-02-18T10:09:08.427Z,100462.75
2023-02-18T10:11:42.337Z,100453.59
2023-02-18T10:14:14.957Z,100456.25
2023-02-18T10:16:44.537Z,100455.09
2023-02-18T10:19:22.601Z,100439.22
2023-02-18T10:21:51.342Z,100452.66
2023-02-18T10:24:27.003Z,100438.28
2023-02-18T10:26:53.712Z,100444.03
2023-02-18T10:29:21.838Z,100443.13
2023-02-18T10:31:57.786Z,100430.75
2023-02-18T10:34:48.991Z,100449.34
2023-02-18T10:37:49.586Z,100449.31
2023-02-18T10:40:35.773Z,100445.94
2023-02-18T10:43:33.264Z,100439.91
2023-02-18T10:46:39.138Z,100434.00
2023-02-18T10:49:20.660Z,100414.75
2023-02-18T10:51:58.436Z,100415.50
2023-02-18T10:54:27.335Z,100411.16
2023-02-18T10:57:00.154Z,100391.41
2023-02-18T10:59:32.653Z,100408.28
2023-02-18T11:02:03.399Z,100399.31
2023-02-18T11:04:41.527Z,100407.06
2023-02-18T11:07:24.313Z,100400.88
2023-02-18T11:09:56.437Z,100396.88
2023-02-18T11:12:27.965Z,100399.19
2023-02-18T11:15:18.283Z,100403.00
2023-02-18T11:17:48.879Z,100401.50
2023-02-18T11:20:21.455Z,100393.22
2023-02-18T11:22:49.876Z,100391.53
2023-02-18T11:25:25.655Z,100395.97
2023-02-18T11:27:56.839Z,100390.34
2023-02-18T11:30:39.287Z,100378.56
2023-02-18T11:33:21.742Z,100377.88
2023-02-18T11:35:56.668Z,100379.53
2023-02-18T11:38:24.105Z,100375.84
2023-02-18T11:40:59.484Z,100366.44
2023-02-18T11:43:31.007Z,100368.81
2023-02-18T11:46:20.012Z,100371.66
2023-02-18T11:48:48.492Z,100364.50
2023-02-18T11:51:28.186Z,100361.69
2023-02-18T11:54:05.421Z,100353.19
2023-02-18T11:56:35.983Z,100360.03
2023-02-18T11:59:04.378Z,100359.84
2023-02-18T12:01:42.154Z,100341.47
2023-02-18T12:04:18.127Z,100330.56
2023-02-18T12:06:52.483Z,100317.69
2023-02-18T12:09:39.324Z,100299.66
2023-02-18T12:12:22.488Z,100297.22
2023-02-18T12:14:49.160Z,100283.66
2023-02-18T12:18:01.188Z,100298.13
2023-02-18T12:21:02.093Z,100298.00
2023-02-18T12:23:58.154Z,100294.56
2023-02-18T12:26:46.892Z,100287.22
2023-02-18T12:29:51.994Z,100288.78
2023-02-18T12:32:57.959Z,100275.34
2023-02-18T12:35:37.623Z,100279.25
2023-02-18T12:38:04.464Z,100282.03
2023-02-18T12:41:05.566Z,100286.72
2023-02-18T12:44:29.027Z,100275.72
2023-02-18T12:47:45.099Z,100258.94
2023-02-18T12:50:26.897Z,100273.91
2023-02-18T12:53:02.341Z,100267.78
2023-02-18T12:55:34.404Z,100261.56
2023-02-18T12:58:06.759Z,100257.31
2023-02-18T13:00:55.292Z,100252.72
2023-02-18T13:04:10.426Z,100251.59
2023-02-18T13:07:08.648Z,100249.50
2023-02-18T13:09:57.257Z,100240.88
2023-02-18T13:13:15.507Z,100249.31
2023-02-18T13:15:59.065Z,100226.25
2023-02-18T13:18:40.774Z,100231.16
2023-02-18T13:21:12.441Z,100217.91
2023-02-18T13:23:54.266Z,100223.84
2023-02-18T13:26:22.179Z,100221.34
2023-02-18T13:29:22.038Z,100215.78
2023-02-18T13:32:15.300Z,100213.91
2023-02-18T13:35:02.201Z,100217.19
2023-02-18T13:37:40.695Z,100210.22
2023-02-18T13:40:27.694Z,100206.28
2023-02-18T13:42:54.568Z,100204.63
2023-02-18T13:45:32.756Z,100193.75
2023-02-18T13:48:00.913Z,100201.00
2023-02-18T13:50:39.142Z,100183.66
2023-02-18T13:53:08.781Z,100169.31
2023-02-18T13:55:55.072Z,100173.53
2023-02-18T13:58:24.680Z,100163.44
2023-02-18T14:01:06.134Z,100153.06
2023-02-18T14:03:44.896Z,100147.25
2023-02-18T14:06:22.869Z,100158.28
2023-02-18T14:08:50.048Z,100145.66
2023-02-18T14:11:16.696Z,100146.09
2023-02-18T14:13:54.490Z,100137.50
2023-02-18T14:16:22.227Z,100145.06
2023-02-18T14:18:59.146Z,100133.13
2023-02-18T14:21:43.495Z,100113.22
2023-02-18T14:24:14.903Z,100118.88
2023-02-18T14:26:47.429Z,100117.38
2023-02-18T14:29:40.494Z,100102.75
2023-02-18T14:32:12.031Z,100115.13
2023-02-18T14:34:41.476Z,100096.97
2023-02-18T14:37:27.647Z,100098.38
2023-02-18T14:40:23.729Z,100093.50
2023-02-18T14:43:32.028Z,100093.22
2023-02-18T14:46:17.968Z,100097.53
2023-02-18T14:49:06.739Z,100102.91
2023-02-18T14:51:36.399Z,100093.91
2023-02-18T14:54:13.474Z,100101.97
2023-02-18T14:57:06.298Z,100093.75
2023-02-18T14:59:46.059Z,100094.28
2023-02-18T15:02:21.157Z,100098.44
2023-02-18T15:04:49.442Z,100090.97
2023-02-18T15:07:20.857Z,100093.84
2023-02-18T15:09:54.863Z,100093.00
2023-02-18T15:12:25.740Z,100086.72
2023-02-18T15:14:57.609Z,100084.97
2023-02-18T15:17:26.465Z,100084.78
2023-02-18T15:20:03.538Z,100086.81
2023-02-18T15:22:32.861Z,100087.00
2023-02-18T15:25:02.053Z,100078.44
2023-02-18T15:27:31.979Z,100094.09
2023-02-18T15:30:15.745Z,100084.94
2023-02-18T15:32:46.057Z,100073.03
2023-02-18T15:35:18.761Z,100070.22
2023-02-18T15:37:47.507Z,100072.25
2023-02-18T15:40:18.491Z,100074.50
2023-02-18T15:42:51.736Z,100072.91
2023-02-18T15:45:21.564Z,100069.75
2023-02-18T15:47:51.887Z,100073.50
2023-02-18T15:50:22.644Z,100074.25
2023-02-18T15:52:50.201Z,100063.91
2023-02-18T15:55:31.978Z,100065.81
2023-02-18T15:58:09.036Z,100065.75
2023-02-18T16:00:40.995Z,100071.88
2023-02-18T16:03:32.252Z,100071.78
2023-02-18T16:06:12.996Z,100068.31
2023-02-18T16:08:39.762Z,100063.81
2023-02-18T16:11:11.028Z,100076.91
2023-02-18T16:13:46.002Z,100072.13
2023-02-18T16:16:32.741Z,100078.38
2023-02-18T16:19:00.537Z,100077.19
2023-02-18T16:21:39.863Z,100076.13
2023-02-18T16:24:25.130Z,100074.06
2023-02-18T16:26:54.801Z,100068.59
2023-02-18T16:29:25.681Z,100062.69
2023-02-18T16:31:52.500Z,100066.16
2023-02-18T16:34:19.434Z,100069.31
2023-02-18T16:36:46.557Z,100064.41
2023-02-18T16:39:13.466Z,100064.72
2023-02-18T16:41:40.109Z,100055.94
2023-02-18T16:44:13.289Z,100059.44
2023-02-18T16:46:39.972Z,100059.59
2023-02-18T16:49:07.038Z,100054.50
2023-02-18T16:51:36.382Z,100059.59
2023-02-18T16:54:03.390Z,100046.03
2023-02-18T16:56:33.537Z,100053.94
2023-02-18T16:59:00.277Z,100047.31
2023-02-18T17:01:30.448Z,100052.69
2023-02-18T17:03:59.368Z,100077.28
2023-02-18T17:06:27.486Z,100068.03
2023-02-18T17:08:54.199Z,100062.41
2023-02-18T17:11:20.800Z,100054.81
2023-02-18T17:13:49.080Z,100061.91
2023-02-18T17:16:16.768Z,100063.41
2023-02-18T17:18:43.694Z,100062.16
2023-02-18T17:21:18.972Z,100054.44
2023-02-18T17:23:46.464Z,100059.59
2023-02-18T17:26:20.237Z,100061.59
2023-02-18T17:28:47.307Z,100066.06
2023-02-18T17:31:41.127Z,100059.09
2023-02-18T17:34:12.104Z,100053.38
2023-02-18T17:36:38.944Z,100056.19
2023-02-18T17:39:13.213Z,100053.06
2023-02-18T17:41:39.986Z,100045.19
2023-02-18T17:44:18.388Z,100045.97
2023-02-18T17:46:45.865Z,100047.41
2023-02-18T17:49:12.950Z,100046.81
2023-02-18T17:51:39.573Z,100047.59
2023-02-18T17:54:17.265Z,100043.66
2023-02-18T17:56:44.065Z,100038.19
2023-02-18T17:59:10.957Z,100033.78
2023-02-18T18:01:37.758Z,100035.50
2023-02-18T18:04:04.871Z,100033.28
2023-02-18T18:06:31.834Z,100030.81
2023-02-18T18:08:58.594Z,100032.72
2023-02-18T18:11:25.295Z,100042.47
2023-02-18T18:13:53.164Z,100032.53
2023-02-18T18:16:21.189Z,100035.75
2023-02-18T18:18:47.986Z,100040.13
2023-02-18T18:21:34.888Z,100041.16
2023-02-18T18:24:01.941Z,100046.25
2023-02-18T18:26:28.684Z,100040.28
2023-02-18T18:28:55.332Z,100046.25
2023-02-18T18:31:22.281Z,100035.19
2023-02-18T18:33:50.832Z,100031.72
2023-02-18T18:36:19.198Z,100041.53
2023-02-18T18:38:46.679Z,100044.66
2023-02-18T18:41:16.134Z,100037.19
2023-02-18T18:43:43.113Z,100050.72
2023-02-18T18:46:12.514Z,100051.84
2023-02-18T18:48:39.234Z,100046.13
2023-02-18T18:51:05.977Z,100055.38
2023-02-18T18:53:34.633Z,100053.38
2023-02-18T18:56:05.110Z,100049.91
2023-02-18T18:58:32.185Z,100044.75
2023-02-18T19:01:01.628Z,100058.06
2023-02-18T19:03:29.439Z,100056.47
2023-02-18T19:05:56.369Z,100061.59
2023-02-18T19:08:23.535Z,100067.84
2023-02-18T19:10:55.628Z,100064.19
2023-02-18T19:13:28.216Z,100067.41
2023-02-18T19:16:13.371Z,100072.50
2023-02-18T19:18:40.144Z,100080.97
2023-02-18T19:21:06.724Z,100087.59
2023-02-18T19:23:33.896Z,100086.50
2023-02-18T19:26:00.765Z,100092.56
2023-02-18T19:28:28.416Z,100091.88
2023-02-18T19:30:55.255Z,100096.09
2023-02-18T19:33:22.244Z,100106.41
2023-02-18T19:35:48.939Z,100103.75
2023-02-18T19:38:17.305Z,100107.88
2023-02-18T19:40:45.335Z,100104.78
2023-02-18T19:43:12.528Z,100111.97
2023-02-18T19:45:45.736Z,100103.97
2023-02-18T19:48:13.835Z,100115.41
2023-02-18T19:50:42.325Z,100114.69
2023-02-18T19:53:10.189Z,100127.56
2023-02-18T19:55:38.009Z,100127.94
2023-02-18T19:58:04.664Z,100136.94
2023-02-18T20:00:31.249Z,100134.25
2023-02-18T20:02:58.123Z,100126.66
2023-02-18T20:05:26.343Z,100137.38
2023-02-18T20:07:53.320Z,100122.25
2023-02-18T20:10:20.083Z,100107.75
2023-02-18T20:12:51.782Z,100098.00
2023-02-18T20:15:18.430Z,100104.53
2023-02-18T20:17:45.224Z,100110.25
2023-02-18T20:20:11.976Z,100120.47
2023-02-18T20:22:38.672Z,100121.47
2023-02-18T20:25:05.585Z,100122.66
2023-02-18T20:27:33.808Z,100130.06
2023-02-18T20:30:00.528Z,100120.44
2023-02-18T20:32:27.209Z,100130.34
2023-02-18T20:34:53.928Z,100119.91
2023-02-18T20:37:23.420Z,100112.22
2023-02-18T20:39:50.135Z,100118.50
2023-02-18T20:42:17.232Z,100108.63
2023-02-18T20:44:47.057Z,100119.31
2023-02-18T20:47:13.852Z,100122.72
2023-02-18T20:49:41.528Z,100115.81
2023-02-18T20:52:09.047Z,100121.41
2023-02-18T20:54:35.633Z,100122.31
2023-02-18T20:57:03.739Z,100130.56
2023-02-18T20:59:30.892Z,100127.88
2023-02-18T21:01:59.115Z,100123.78
2023-02-18T21:04:25.961Z,100126.28
2023-02-18T21:06:52.570Z,100133.06
2023-02-18T21:09:19.230Z,100130.25
2023-02-18T21:11:46.187Z,100130.91
2023-02-18T21:14:13.079Z,100144.00
2023-02-18T21:16:39.935Z,100136.47
2023-02-18T21:19:09.150Z,100128.16
2023-02-18T21:21:36.284Z,100131.31
2023-02-18T21:24:03.446Z,100121.34
2023-02-18T21:26:30.128Z,100130.75
2023-02-18T21:29:00.962Z,100124.91
2023-02-18T21:31:42.358Z,100136.22
2023-02-18T21:34:14.028Z,100135.00
2023-02-18T21:36:41.388Z,100133.44
2023-02-18T21:39:09.806Z,100135.38
2023-02-18T21:41:40.102Z,100132.78
2023-02-18T21:44:10.273Z,100124.47
2023-02-18T21:46:37.635Z,100122.81
2023-02-18T21:49:05.223Z,100128.53
2023-02-18T21:51:38.093Z,100125.13
2023-02-18T21:54:05.132Z,100129.56
2023-02-18T21:56:31.948Z,100142.50
2023-02-18T21:58:58.569Z,100143.22
2023-02-18T22:01:26.950Z,100141.75
2023-02-18T22:03:55.585Z,100149.03
2023-02-18T22:06:22.661Z,100135.38
2023-02-18T22:08:49.288Z,100142.56
2023-02-18T22:11:16.127Z,100151.22
2023-02-18T22:13:42.887Z,100154.47
2023-02-18T22:16:09.835Z,100150.34
2023-02-18T22:18:36.877Z,100155.16
2023-02-18T22:21:10.054Z,100155.66
2023-02-18T22:23:37.080Z,100155.25
2023-02-18T22:26:08.498Z,100159.72
2023-02-18T22:28:35.919Z,100160.63
2023-02-18T22:31:10.566Z,100164.50
2023-02-18T22:33:38.219Z,100165.22
2023-02-18T22:36:06.865Z,100153.63
2023-02-18T22:38:35.036Z,100162.56
2023-02-18T22:41:08.504Z,100167.19
2023-02-18T22:43:36.017Z,100169.00
2023-02-18T22:46:04.614Z,100167.88
2023-02-18T22:48:33.304Z,100172.47
2023-02-18T22:51:21.478Z,100177.78
2023-02-18T22:53:48.256Z,100174.63
2023-02-18T22:56:17.113Z,100172.53
2023-02-18T22:58:45.028Z,100169.47
2023-02-18T23:01:41.852Z,100174.38
2023-02-18T23:04:14.476Z,100181.38
2023-02-18T23:06:44.360Z,100169.69
2023-02-18T23:09:22.580Z,100184.22
2023-02-18T23:11:51.606Z,100174.06
2023-02-18T23:14:18.990Z,100175.59
2023-02-18T23:16:55.191Z,100175.06
2023-02-18T23:19:22.456Z,100162.16
2023-02-18T23:21:49.392Z,100167.28
2023-02-18T23:24:16.200Z,100160.53
2023-02-18T23:26:43.363Z,100157.13
2023-02-18T23:29:10.583Z,100166.19
2023-02-18T23:31:37.514Z,100159.66
2023-02-18T23:34:06.380Z,100156.53
2023-02-18T23:36:35.145Z,100162.16
2023-02-18T23:39:04.778Z,100176.25
2023-02-18T23:41:31.837Z,100154.56
2023-02-18T23:43:58.551Z,100164.91
2023-02-18T23:46:26.945Z,100163.72
2023-02-18T23:48:53.742Z,100158.59
2023-02-18T23:51:22.789Z,100166.44
2023-02-18T23:53:49.736Z,100172.59
2023-02-18T23:56:17.256Z,100170.00
2023-02-18T23:58:46.025Z,100170.63
